createdAt,value
2018-09-24T04:32:55.665Z,12.20
2018-09-24T04:35:30.444Z,11.20
2018-09-24T04:38:09.340Z,11.30
2018-09-24T04:40:45.864Z,11.30
2018-09-24T04:43:21.444Z,11.30
2018-09-24T04:45:56.874Z,11.30
2018-09-24T04:48:33.949Z,11.30
2018-09-24T04:51:11.663Z,11.30
2018-09-24T04:53:53.163Z,11.20
2018-09-24T04:56:30.762Z,11.20
2018-09-24T04:59:05.992Z,11.30
2018-09-24T05:01:42.157Z,11.40
2018-09-24T05:04:17.826Z,11.40
2018-09-24T05:06:53.386Z,11.40
2018-09-24T05:09:28.047Z,11.40
2018-09-24T05:12:09.131Z,11.50
2018-09-24T05:17:31.345Z,11.40
2018-09-24T05:20:10.891Z,11.30
2018-09-24T05:22:45.055Z,11.30
2018-09-24T05:25:18.861Z,11.20
2018-09-24T05:27:52.884Z,11.20
2018-09-24T05:30:26.729Z,11.20
2018-09-24T05:33:00.265Z,11.20
2018-09-24T05:35:34.080Z,11.20
2018-09-24T05:38:08.589Z,11.10
2018-09-24T05:40:42.640Z,11.20
2018-09-24T05:43:16.892Z,11.10
2018-09-24T05:45:52.130Z,11.00
2018-09-24T05:48:26.554Z,11.10
2018-09-24T05:51:00.246Z,11.10
2018-09-24T05:53:33.773Z,11.10
2018-09-24T05:56:07.523Z,11.10
2018-09-24T05:58:40.994Z,11.30
2018-09-24T06:01:14.558Z,11.40
2018-09-24T06:03:48.225Z,11.40
2018-09-24T06:06:22.367Z,11.40
2018-09-24T06:08:56.090Z,11.40
2018-09-24T06:11:29.361Z,11.40
2018-09-24T06:14:03.021Z,11.40
2018-09-24T06:16:36.798Z,11.60
2018-09-24T06:19:10.618Z,12.00
2018-09-24T06:21:44.277Z,12.30
2018-09-24T06:24:18.082Z,12.70
2018-09-24T06:26:51.706Z,13.00
2018-09-24T06:29:26.641Z,13.10
2018-09-24T06:46:31.564Z,13.40
2018-09-24T06:49:23.974Z,12.00
2018-09-24T06:51:58.557Z,11.90
2018-09-24T06:54:32.157Z,12.00
2018-09-24T06:57:06.250Z,12.30
2018-09-24T06:59:40.084Z,12.70
2018-09-24T07:02:15.731Z,13.10
2018-09-24T07:04:49.940Z,13.20
2018-09-24T07:07:24.249Z,13.60
2018-09-24T07:09:58.125Z,13.90
2018-09-24T07:18:04.667Z,13.80
2018-09-24T07:20:48.507Z,14.00
2018-09-24T07:23:22.297Z,13.60
2018-09-24T07:26:02.564Z,13.30
2018-09-24T07:28:38.162Z,13.20
2018-09-24T07:31:19.020Z,13.30
2018-09-24T07:33:54.917Z,13.60
2018-09-24T07:36:28.713Z,13.70
2018-09-24T07:39:02.788Z,13.80
2018-09-24T07:41:36.489Z,14.00
2018-09-24T07:44:23.427Z,14.20
2018-09-24T07:46:56.986Z,14.70
2018-09-24T07:49:30.429Z,15.20
2018-09-24T07:52:04.235Z,15.70
2018-09-24T07:54:37.973Z,15.60
2018-09-24T07:57:11.525Z,15.60
2018-09-24T07:59:44.973Z,15.50
2018-09-24T08:02:18.385Z,15.50
2018-09-24T08:04:51.636Z,15.10
2018-09-24T08:07:24.933Z,15.00
2018-09-24T08:09:58.065Z,15.00
2018-09-24T08:12:31.474Z,14.80
2018-09-24T08:15:04.938Z,14.90
2018-09-24T08:17:38.353Z,14.70
2018-09-24T08:20:11.857Z,15.20
2018-09-24T08:22:45.290Z,15.30
2018-09-24T08:25:19.233Z,15.40
2018-09-24T08:27:52.961Z,15.20
2018-09-24T08:30:26.132Z,15.30
2018-09-24T08:32:59.552Z,15.00
2018-09-24T08:35:32.907Z,14.90
2018-09-24T08:38:06.612Z,14.90
2018-09-24T08:40:40.000Z,15.00
2018-09-24T08:43:13.242Z,15.30
2018-09-24T08:45:46.428Z,15.60
2018-09-24T08:48:23.724Z,15.90
2018-09-24T08:50:57.060Z,16.00
2018-09-24T08:53:30.503Z,15.70
2018-09-24T08:56:03.733Z,15.40
2018-09-24T08:58:36.950Z,15.30
2018-09-24T09:01:10.118Z,15.10
2018-09-24T09:03:43.449Z,15.00
2018-09-24T09:06:17.113Z,15.20
2018-09-24T09:08:50.832Z,15.70
2018-09-24T09:11:24.358Z,15.70
2018-09-24T09:13:57.560Z,15.80
2018-09-24T09:16:30.882Z,16.00
2018-09-24T09:19:04.335Z,15.90
2018-09-24T09:21:38.182Z,15.80
2018-09-24T09:24:11.853Z,15.50
2018-09-24T09:26:45.197Z,15.40
2018-09-24T09:29:18.781Z,15.00
2018-09-24T09:31:52.192Z,15.40
2018-09-24T09:34:27.978Z,15.70
2018-09-24T09:37:02.190Z,15.80
2018-09-24T09:39:35.603Z,16.10
2018-09-24T09:42:09.180Z,16.10
2018-09-24T09:44:42.693Z,16.20
2018-09-24T09:47:16.126Z,16.10
2018-09-24T09:49:49.496Z,16.00
2018-09-24T09:52:22.920Z,15.80
2018-09-24T09:54:56.378Z,15.30
2018-09-24T09:57:29.862Z,14.70
2018-09-24T10:00:03.008Z,14.80
2018-09-24T10:02:36.384Z,14.90
2018-09-24T10:05:09.755Z,15.00
2018-09-24T10:07:43.180Z,14.60
2018-09-24T10:10:17.354Z,14.90
2018-09-24T10:12:50.583Z,15.10
2018-09-24T10:15:23.765Z,15.20
2018-09-24T10:17:57.159Z,15.40
2018-09-24T10:20:30.328Z,15.50
2018-09-24T10:23:03.668Z,15.20
2018-09-24T10:25:37.038Z,15.50
2018-09-24T10:28:11.456Z,15.40
2018-09-24T10:30:45.265Z,15.00
2018-09-24T10:33:18.353Z,14.50
2018-09-24T10:35:51.556Z,14.70
2018-09-24T10:38:24.755Z,15.00
2018-09-24T10:40:57.932Z,15.40
2018-09-24T10:43:31.150Z,15.80
2018-09-24T10:46:04.532Z,15.90
2018-09-24T10:48:37.661Z,15.80
2018-09-24T10:51:11.066Z,15.80
2018-09-24T10:53:44.415Z,15.80
2018-09-24T10:56:17.616Z,15.80
2018-09-24T10:58:51.277Z,15.70
2018-09-24T11:01:24.630Z,15.30
2018-09-24T11:03:58.463Z,15.50
2018-09-24T11:06:32.229Z,15.30
2018-09-24T11:09:05.821Z,15.30
2018-09-24T11:11:39.369Z,15.40
2018-09-24T11:14:12.667Z,15.40
2018-09-24T11:16:46.218Z,15.20
2018-09-24T11:19:19.297Z,15.40
2018-09-24T11:21:52.700Z,15.50
2018-09-24T11:24:25.928Z,15.50
2018-09-24T11:26:59.788Z,15.80
2018-09-24T11:29:33.218Z,15.50
2018-09-24T11:32:06.526Z,15.50
2018-09-24T11:34:39.656Z,15.30
2018-09-24T11:37:12.983Z,15.40
2018-09-24T11:39:47.077Z,15.50
2018-09-24T11:42:20.283Z,15.70
2018-09-24T11:44:53.792Z,15.80
2018-09-24T11:47:27.221Z,15.70
2018-09-24T11:50:00.561Z,15.40
2018-09-24T11:52:33.933Z,15.70
2018-09-24T11:55:07.313Z,15.90
2018-09-24T11:57:41.017Z,16.00
2018-09-24T12:00:14.369Z,15.80
2018-09-24T12:02:47.857Z,15.90
2018-09-24T12:05:21.012Z,16.00
2018-09-24T12:07:54.713Z,16.20
2018-09-24T12:10:28.526Z,16.50
2018-09-24T12:13:02.464Z,16.20
2018-09-24T12:15:36.253Z,15.60
2018-09-24T12:18:10.137Z,15.60
2018-09-24T12:20:43.591Z,15.90
2018-09-24T12:23:17.081Z,16.20
2018-09-24T12:25:50.288Z,16.50
2018-09-24T12:28:29.868Z,16.60
2018-09-24T12:31:03.459Z,16.40
2018-09-24T12:33:36.601Z,16.30
2018-09-24T12:36:09.971Z,16.30
2018-09-24T12:38:43.498Z,16.30
2018-09-24T12:41:16.784Z,16.10
2018-09-24T12:43:50.161Z,16.20
2018-09-24T12:46:23.531Z,16.30
2018-09-24T12:48:56.992Z,16.40
2018-09-24T12:51:30.349Z,16.40
2018-09-24T12:54:03.709Z,16.50
2018-09-24T12:56:37.088Z,16.70
2018-09-24T12:59:10.582Z,16.60
2018-09-24T13:01:44.003Z,16.50
2018-09-24T13:04:17.378Z,16.30
2018-09-24T13:06:50.885Z,16.10
2018-09-24T13:09:24.252Z,15.80
2018-09-24T13:11:57.419Z,15.50
2018-09-24T13:14:30.645Z,15.50
2018-09-24T13:17:04.132Z,15.60
2018-09-24T13:19:37.560Z,15.60
2018-09-24T13:22:10.905Z,15.70
2018-09-24T13:24:44.267Z,15.80
2018-09-24T13:27:17.693Z,15.80
2018-09-24T13:29:51.077Z,15.90
2018-09-24T13:32:24.181Z,15.90
2018-09-24T13:34:57.348Z,15.90
2018-09-24T13:37:30.808Z,15.80
2018-09-24T13:40:04.270Z,15.70
2018-09-24T13:42:37.608Z,15.80
2018-09-24T13:45:11.031Z,15.90
2018-09-24T13:47:44.539Z,15.90
2018-09-24T13:50:18.090Z,16.10
2018-09-24T13:52:51.706Z,16.10
2018-09-24T13:55:25.184Z,16.10
2018-09-24T13:57:58.612Z,16.10
2018-09-24T14:00:32.229Z,16.30
2018-09-24T14:03:05.767Z,16.10
2018-09-24T14:05:39.321Z,16.00
2018-09-24T14:08:12.945Z,15.90
2018-09-24T14:10:46.660Z,15.90
2018-09-24T14:13:20.132Z,15.70
2018-09-24T14:15:53.660Z,15.70
2018-09-24T14:18:27.085Z,15.60
2018-09-24T14:21:00.553Z,15.50
2018-09-24T14:23:33.886Z,15.50
2018-09-24T14:26:07.229Z,15.20
2018-09-24T14:28:40.777Z,15.30
2018-09-24T14:31:14.388Z,15.20
2018-09-24T14:33:49.269Z,15.20
2018-09-24T14:36:22.786Z,15.40
2018-09-24T14:38:56.164Z,15.40
2018-09-24T14:41:29.432Z,15.50
2018-09-24T14:44:02.785Z,15.50
2018-09-24T14:46:35.960Z,15.60
2018-09-24T14:49:09.292Z,15.70
2018-09-24T14:51:42.464Z,15.70
2018-09-24T14:54:15.798Z,15.60
2018-09-24T14:56:49.092Z,15.40
2018-09-24T14:59:22.265Z,15.40
2018-09-24T15:01:55.576Z,15.40
2018-09-24T15:04:28.801Z,15.40
2018-09-24T15:07:02.101Z,15.40
2018-09-24T15:09:40.524Z,15.50
2018-09-24T15:12:13.718Z,15.60
2018-09-24T15:14:46.919Z,15.80
2018-09-24T15:17:20.209Z,15.90
2018-09-24T15:19:53.537Z,16.00
2018-09-24T15:22:27.245Z,16.20
2018-09-24T15:25:00.689Z,16.10
2018-09-24T15:27:34.149Z,15.80
2018-09-24T15:30:07.783Z,15.60
2018-09-24T15:32:41.751Z,15.60
2018-09-24T15:35:15.332Z,15.30
2018-09-24T15:37:48.849Z,15.30
2018-09-24T15:40:22.569Z,15.10
2018-09-24T15:42:56.190Z,14.90
2018-09-24T15:45:29.967Z,14.90
2018-09-24T15:48:03.416Z,15.00
2018-09-24T15:53:28.713Z,14.80
2018-09-24T15:56:08.074Z,14.80
2018-09-24T16:01:37.087Z,14.80
2018-09-24T16:04:15.094Z,14.80
2018-09-24T16:06:49.708Z,14.90
2018-09-24T16:09:25.618Z,15.00
2018-09-24T16:11:59.398Z,14.90
2018-09-24T16:14:39.926Z,14.90
2018-09-24T16:17:14.498Z,14.90
2018-09-24T16:19:50.341Z,15.10
2018-09-24T16:22:24.919Z,15.10
2018-09-24T16:24:59.486Z,15.20
2018-09-24T16:27:32.873Z,15.10
2018-09-24T16:30:08.847Z,15.20
2018-09-24T16:32:46.112Z,15.30
2018-09-24T16:35:20.965Z,15.30
2018-09-24T16:38:01.773Z,15.40
2018-09-24T16:40:36.501Z,15.40
2018-09-24T16:43:12.729Z,15.50
2018-09-24T16:45:47.014Z,15.50
2018-09-24T16:48:22.714Z,15.60
2018-09-24T16:50:57.787Z,15.60
2018-09-24T16:53:33.293Z,15.60
2018-09-24T16:56:08.753Z,15.70
2018-09-24T16:58:44.680Z,15.70
2018-09-24T17:01:19.105Z,15.70
2018-09-24T17:03:54.489Z,15.60
2018-09-24T17:06:28.456Z,15.60
2018-09-24T17:09:03.119Z,15.50
2018-09-24T17:11:39.224Z,15.50
2018-09-24T17:14:18.049Z,15.40
2018-09-24T17:16:59.672Z,15.30
2018-09-24T17:19:33.436Z,15.30
2018-09-24T17:22:07.489Z,15.30
2018-09-24T17:24:41.142Z,15.30
2018-09-24T17:27:15.620Z,15.20
2018-09-24T17:29:49.456Z,15.20
2018-09-24T17:32:23.153Z,15.10
2018-09-24T17:34:58.771Z,15.00
2018-09-24T17:37:32.308Z,15.00
2018-09-24T17:40:05.874Z,15.00
2018-09-24T17:42:39.357Z,15.00
2018-09-24T17:45:12.987Z,15.00
2018-09-24T17:47:46.578Z,14.90
2018-09-24T17:50:20.257Z,14.60
2018-09-24T17:52:53.976Z,14.50
2018-09-24T17:55:28.011Z,14.60
2018-09-24T17:58:01.785Z,14.60
2018-09-24T18:00:35.299Z,14.60
2018-09-24T18:03:09.170Z,14.50
2018-09-24T18:05:42.777Z,14.40
2018-09-24T18:08:16.659Z,14.30
2018-09-24T18:10:50.493Z,14.20
2018-09-24T18:13:24.024Z,14.10
2018-09-24T18:16:00.002Z,14.00
2018-09-24T18:18:34.056Z,13.90
2018-09-24T18:21:08.056Z,13.80
2018-09-24T18:23:42.147Z,13.70
2018-09-24T18:26:16.431Z,13.60
2018-09-24T18:28:50.271Z,13.50
2018-09-24T18:31:23.956Z,13.50
2018-09-24T18:33:57.417Z,13.40
2018-09-24T18:36:31.293Z,13.30
2018-09-24T18:39:07.117Z,13.20
2018-09-24T18:41:40.718Z,13.20
2018-09-24T18:44:18.849Z,13.20
2018-09-24T18:46:53.919Z,13.20
2018-09-24T18:49:28.700Z,13.10
2018-09-24T18:52:02.719Z,13.20
2018-09-24T18:54:38.917Z,13.10
2018-09-24T18:57:14.060Z,13.10
2018-09-24T18:59:48.362Z,13.10
2018-09-24T19:51:30.170Z,12.10
2018-09-24T19:54:14.167Z,12.10
2018-09-24T19:56:58.759Z,12.00
2018-09-24T20:08:01.276Z,11.80
2018-09-24T20:16:14.002Z,11.40
2018-09-24T20:18:58.917Z,11.40
2018-09-24T20:24:23.741Z,11.10
2018-09-24T20:26:57.120Z,11.00
2018-09-24T20:32:10.858Z,10.70
2018-09-24T20:34:44.824Z,10.70
2018-09-24T20:37:18.928Z,10.50
2018-09-24T20:39:53.261Z,10.40
2018-09-24T20:42:29.052Z,10.40
2018-09-24T20:45:02.389Z,10.30
2018-09-24T20:47:35.757Z,10.40
2018-09-24T20:50:09.104Z,10.40
2018-09-24T20:52:46.336Z,10.50
2018-09-24T20:55:20.155Z,10.40
2018-09-24T20:57:55.457Z,10.40
2018-09-24T21:00:28.764Z,10.30
2018-09-24T21:03:03.512Z,10.40
2018-09-24T21:05:37.745Z,10.40
2018-09-24T21:08:11.397Z,10.40
2018-09-24T21:10:44.769Z,10.30
2018-09-24T21:13:18.194Z,10.30
2018-09-24T21:15:51.404Z,10.30
2018-09-24T21:18:25.737Z,10.30
2018-09-24T21:20:59.134Z,10.20
2018-09-24T21:23:42.324Z,10.20
2018-09-24T21:26:18.804Z,10.30
2018-09-24T21:31:33.023Z,10.10
2018-09-24T21:34:06.681Z,10.10
2018-09-24T21:36:40.500Z,10.10
2018-09-24T21:39:13.815Z,10.10
2018-09-24T21:41:47.226Z,10.20
2018-09-24T21:44:20.612Z,10.00
2018-09-24T21:46:54.113Z,9.90
2018-09-24T21:49:27.626Z,10.00
2018-09-24T21:52:01.521Z,10.20
2018-09-24T21:54:35.460Z,10.00
2018-09-24T21:57:09.188Z,9.90
2018-09-24T21:59:42.540Z,9.90
2018-09-24T22:02:15.790Z,9.90
2018-09-24T22:04:49.096Z,9.70
2018-09-24T22:07:22.444Z,9.80
2018-09-24T22:09:55.637Z,9.70
2018-09-24T22:12:29.142Z,9.70
2018-09-24T22:15:02.671Z,9.70
2018-09-24T22:17:36.192Z,9.70
2018-09-24T22:20:09.533Z,9.70
2018-09-24T22:22:43.090Z,9.70
2018-09-24T22:25:16.490Z,9.80
2018-09-24T22:27:51.545Z,9.80
2018-09-24T22:30:24.921Z,9.90
2018-09-24T22:32:58.101Z,9.90
2018-09-24T22:35:31.690Z,9.80
2018-09-24T22:38:04.975Z,9.60
2018-09-24T22:40:38.344Z,9.60
2018-09-24T22:43:23.454Z,9.50
2018-09-24T22:45:57.256Z,9.50
2018-09-24T22:48:30.921Z,9.50
2018-09-24T22:51:04.612Z,9.50
2018-09-24T22:53:38.150Z,9.40
2018-09-24T22:56:11.645Z,9.50
2018-09-24T22:58:44.905Z,9.50
2018-09-24T23:01:18.353Z,9.50
2018-09-24T23:03:51.660Z,9.60
2018-09-24T23:06:25.181Z,9.60
2018-09-24T23:09:00.319Z,9.70
2018-09-24T23:11:34.023Z,9.70
2018-09-24T23:14:07.403Z,9.70
2018-09-24T23:16:40.763Z,9.70
2018-09-24T23:19:14.376Z,9.60
2018-09-24T23:21:48.333Z,9.70
2018-09-24T23:24:24.683Z,9.60
2018-09-24T23:26:58.010Z,9.60
2018-09-24T23:29:32.844Z,9.60
2018-09-24T23:32:06.461Z,9.60
2018-09-24T23:34:40.267Z,9.60
2018-09-24T23:37:13.736Z,9.70
2018-09-24T23:39:53.652Z,9.70
2018-09-24T23:42:28.523Z,9.60
2018-09-24T23:45:02.136Z,9.40
2018-09-24T23:47:35.825Z,9.20
2018-09-24T23:50:09.536Z,9.10
2018-09-24T23:52:43.146Z,8.90
2018-09-24T23:55:16.950Z,8.90
2018-09-24T23:57:50.629Z,8.90
